Terminal Aerodrome Forecast
Issued by NWS

Home | Current Version | Previous Version | Text Only | Print | Product List | Glossary On
Versions: 1 2 3 4 5 6 7 8 9 10 11 12 13 14 15 16 17 18 19 20
830
FTUS43 KIND 232327
TAFHUF
TAF
KHUF 232327Z 2400/2424 32005KT P6SM BKN100
     FM240500 34004KT P6SM VCSH BKN070
     FM241000 34004KT 5SM -SHRA OVC040
     FM241100 33004KT 5SM -SHRA OVC035
     FM242100 32007KT 6SM -SHRA OVC015=

USA.gov is the U.S. government's official web portal to all federal, state and local government web resources and services.